Time;durP1;ratioP1;P1;durP2;ratioP2;P2;SDS_P1;SDS_P2;PMS_P1;PMS_P2;Temp;Humidity;BMP_temperature;BMP_pressure;BME280_temperature;BME280_humidity;BME280_pressure;Samples;Min_cycle;Max_cycle;Signal;HPM_P1;HPM_P2
2022/08/15 00:01:11;;;;;;;;;;;;;;;21.89;100.00;100206.81;6512308;22;19903;-83
2022/08/15 00:03:44;;;;;;;;;;;;;;;21.87;100.00;100182.63;6539318;22;19907;-83
2022/08/15 00:06:18;;;;;;;;;;;;;;;21.85;100.00;100186.63;6538689;22;19914;-83
2022/08/15 00:08:50;;;;;;;;;;;;;;;21.83;100.00;100189.56;6512167;22;19908;-83
2022/08/15 00:11:24;;;;;;;;;;;;;;;21.80;100.00;100192.75;6540646;22;19907;-83
2022/08/15 00:13:57;;;;;;;;;;;;;;;21.71;100.00;100202.28;6540797;22;20182;-83
2022/08/15 00:16:32;;;;;;;;;;;;;;;21.66;100.00;100199.44;6541588;22;19908;-83
2022/08/15 00:19:07;;;;;;;;;;;;;;;21.60;100.00;100194.94;6540109;22;20001;-83
2022/08/15 00:21:43;;;;;;;;;;;;;;;21.53;100.00;100201.28;6540153;22;19911;-83
2022/08/15 00:24:16;;;;;;;;;;;;;;;21.46;100.00;100205.16;6541102;22;19903;-83
2022/08/15 00:26:48;;;;;;;;;;;;;;;21.40;100.00;100201.44;6540912;22;20357;-83
2022/08/15 00:29:21;;;;;;;;;;;;;;;21.34;100.00;100202.38;6541228;22;19965;-83
2022/08/15 00:31:53;;;;;;;;;;;;;;;21.28;100.00;100209.53;6512855;22;19911;-81
2022/08/15 00:34:28;;;;;;;;;;;;;;;21.24;100.00;100207.50;6540924;22;19930;-82
2022/08/15 00:37:00;;;;;;;;;;;;;;;21.19;100.00;100196.50;6539892;22;19986;-82
2022/08/15 00:39:32;;;;;;;;;;;;;;;21.15;100.00;100190.72;6540675;22;19907;-82
2022/08/15 00:42:05;;;;;;;;;;;;;;;21.12;100.00;100193.88;6513308;22;19908;-82
2022/08/15 00:44:44;;;;;;;;;;;;;;;21.11;100.00;100200.38;6539740;22;19915;-82
2022/08/15 00:47:18;;;;;;;;;;;;;;;21.14;100.00;100199.88;6540302;22;19914;-83
2022/08/15 00:49:49;;;;;;;;;;;;;;;21.16;100.00;100200.50;6540912;22;20338;-82
2022/08/15 00:52:24;;;;;;;;;;;;;;;21.18;100.00;100200.25;6539873;22;19935;-82
2022/08/15 00:54:58;;;;;;;;;;;;;;;21.15;100.00;100199.66;6539702;22;19907;-82
2022/08/15 00:57:32;;;;;;;;;;;;;;;21.18;100.00;100197.56;6540985;22;19908;-82
2022/08/15 01:00:07;;;;;;;;;;;;;;;21.19;100.00;100193.78;6540348;22;19911;-82
2022/08/15 01:02:38;;;;;;;;;;;;;;;21.20;100.00;100204.41;6513048;22;19907;-82
2022/08/15 01:05:11;;;;;;;;;;;;;;;21.21;100.00;100197.91;6539501;22;20341;-82
2022/08/15 01:07:43;;;;;;;;;;;;;;;21.22;100.00;100199.59;6539845;22;20360;-82
2022/08/15 01:10:14;;;;;;;;;;;;;;;21.25;100.00;100201.03;6539669;22;19903;-82
2022/08/15 01:12:45;;;;;;;;;;;;;;;21.22;100.00;100193.34;6539821;22;19907;-82
2022/08/15 01:15:17;;;;;;;;;;;;;;;21.21;100.00;100197.09;6540354;22;19904;-82
2022/08/15 01:17:48;;;;;;;;;;;;;;;21.21;100.00;100189.78;6539271;22;20337;-82
2022/08/15 01:20:23;;;;;;;;;;;;;;;21.23;100.00;100182.28;6540237;22;19903;-82
2022/08/15 01:23:12;;;;;;;;;;;;;;;21.23;100.00;100182.28;6540484;22;19914;-82
2022/08/15 01:25:52;;;;;;;;;;;;;;;21.23;100.00;100189.56;6539546;22;19915;-84
2022/08/15 01:28:26;;;;;;;;;;;;;;;21.26;100.00;100197.25;6539955;22;20730;-84
2022/08/15 01:31:00;;;;;;;;;;;;;;;21.31;100.00;100195.50;6540496;22;19930;-84
2022/08/15 01:33:32;;;;;;;;;;;;;;;21.30;100.00;100191.16;6513901;22;19957;-84
2022/08/15 01:36:04;;;;;;;;;;;;;;;21.25;100.00;100187.47;6539669;22;19919;-84
2022/08/15 01:38:37;;;;;;;;;;;;;;;21.16;100.00;100181.53;6539542;22;19916;-84
2022/08/15 01:41:20;;;;;;;;;;;;;;;21.15;100.00;100182.56;6539732;22;19982;-84
2022/08/15 01:43:57;;;;;;;;;;;;;;;21.27;100.00;100186.16;6540486;22;20357;-84
2022/08/15 01:46:32;;;;;;;;;;;;;;;21.33;100.00;100184.41;6540522;22;19915;-84
2022/08/15 01:49:08;;;;;;;;;;;;;;;21.40;100.00;100198.72;6540076;22;19947;-84
2022/08/15 01:51:40;;;;;;;;;;;;;;;21.44;100.00;100205.34;6540277;22;19903;-84
2022/08/15 01:54:12;;;;;;;;;;;;;;;21.44;100.00;100199.94;6540696;22;19910;-83
2022/08/15 01:56:45;;;;;;;;;;;;;;;21.41;100.00;100197.69;6540954;22;19912;-84
2022/08/15 01:59:18;;;;;;;;;;;;;;;21.36;100.00;100197.53;6540000;22;19981;-84
2022/08/15 02:01:55;;;;;;;;;;;;;;;21.30;100.00;100191.16;6540645;22;20249;-84
2022/08/15 02:04:28;;;;;;;;;;;;;;;21.25;100.00;100198.31;6539378;22;19986;-82
2022/08/15 02:07:02;;;;;;;;;;;;;;;21.23;100.00;100192.28;6540274;22;20314;-83
2022/08/15 02:09:33;;;;;;;;;;;;;;;21.19;100.00;100202.75;6539687;22;19943;-83
2022/08/15 02:12:08;;;;;;;;;;;;;;;21.14;100.00;100192.59;6513475;22;19907;-82
2022/08/15 02:14:41;;;;;;;;;;;;;;;21.10;100.00;100199.53;6513112;22;19926;-82
2022/08/15 02:17:13;;;;;;;;;;;;;;;21.11;100.00;100201.19;6540095;22;19908;-82
2022/08/15 02:19:48;;;;;;;;;;;;;;;21.10;100.00;100199.53;6540356;22;20253;-82
2022/08/15 02:22:22;;;;;;;;;;;;;;;21.10;100.00;100201.41;6539897;22;19907;-83
2022/08/15 02:24:57;;;;;;;;;;;;;;;21.11;100.00;100194.94;6540986;22;20443;-83
2022/08/15 02:27:31;;;;;;;;;;;;;;;21.10;100.00;100190.56;6539195;22;19907;-83
2022/08/15 02:30:06;;;;;;;;;;;;;;;21.06;100.00;100194.81;6538897;22;19915;-83
2022/08/15 02:32:40;;;;;;;;;;;;;;;21.03;100.00;100189.81;6512809;22;20278;-82
2022/08/15 02:35:12;;;;;;;;;;;;;;;21.01;100.00;100189.22;6512254;22;19971;-83
2022/08/15 02:37:44;;;;;;;;;;;;;;;20.97;100.00;100197.00;6539450;22;19935;-82
2022/08/15 02:40:15;;;;;;;;;;;;;;;20.92;100.00;100184.09;6539459;22;19930;-81
2022/08/15 02:42:47;;;;;;;;;;;;;;;20.94;100.00;100190.13;6539445;22;19907;-81
2022/08/15 02:45:18;;;;;;;;;;;;;;;20.92;100.00;100197.66;6538433;22;19922;-82
2022/08/15 02:47:52;;;;;;;;;;;;;;;20.91;100.00;100203.28;6540033;22;20230;-81
2022/08/15 02:50:23;;;;;;;;;;;;;;;20.91;100.00;100197.88;6539437;22;19908;-83
2022/08/15 02:52:54;;;;;;;;;;;;;;;20.90;100.00;100197.06;6539709;22;19909;-82
2022/08/15 02:55:25;;;;;;;;;;;;;;;20.90;100.00;100197.06;6539421;22;19954;-82
2022/08/15 02:57:57;;;;;;;;;;;;;;;20.87;100.00;100200.22;6539475;22;20270;-82
2022/08/15 03:00:29;;;;;;;;;;;;;;;20.83;100.00;100198.16;6538834;22;19907;-82
2022/08/15 03:03:02;;;;;;;;;;;;;;;20.75;100.00;100192.00;6540897;22;19911;-82
2022/08/15 03:05:35;;;;;;;;;;;;;;;20.66;100.00;100197.97;6540637;22;19914;-82
2022/08/15 03:08:06;;;;;;;;;;;;;;;20.58;100.00;100191.75;6515115;22;19970;-82
2022/08/15 03:10:38;;;;;;;;;;;;;;;20.53;100.00;100199.72;6539500;22;19939;-83
2022/08/15 03:13:11;;;;;;;;;;;;;;;20.52;100.00;100208.06;6512679;22;19939;-83
2022/08/15 03:15:47;;;;;;;;;;;;;;;20.52;100.00;100211.59;6538787;22;19955;-83
2022/08/15 03:18:19;;;;;;;;;;;;;;;20.47;100.00;100207.91;6513943;22;19912;-83
2022/08/15 03:20:51;;;;;;;;;;;;;;;20.44;100.00;100208.34;6542125;22;19983;-81
2022/08/15 03:23:25;;;;;;;;;;;;;;;20.40;100.00;100208.78;6540435;22;20350;-84
2022/08/15 03:25:59;;;;;;;;;;;;;;;20.34;100.00;100195.31;6539889;22;19987;-84
2022/08/15 03:28:32;;;;;;;;;;;;;;;20.29;100.00;100204.09;6552164;22;20624;-83
2022/08/15 03:31:04;;;;;;;;;;;;;;;20.26;100.00;100199.13;6517338;22;19986;-84
2022/08/15 03:33:37;;;;;;;;;;;;;;;20.27;100.00;100197.28;6540508;22;19911;-84
2022/08/15 03:36:08;;;;;;;;;;;;;;;20.28;100.00;100207.03;6538350;22;19911;-84
2022/08/15 03:38:40;;;;;;;;;;;;;;;20.29;100.00;100204.09;6540097;22;19961;-84
2022/08/15 03:41:13;;;;;;;;;;;;;;;20.25;100.00;100202.06;6540822;22;19903;-83
2022/08/15 03:43:46;;;;;;;;;;;;;;;20.19;100.00;100198.34;6540507;22;19918;-84
2022/08/15 03:46:18;;;;;;;;;;;;;;;20.13;100.00;100201.97;6541867;22;20234;-84
2022/08/15 03:48:52;;;;;;;;;;;;;;;20.03;100.00;100205.97;6541653;22;20636;-84
2022/08/15 03:51:24;;;;;;;;;;;;;;;20.01;100.00;100212.66;6541783;22;19916;-84
2022/08/15 03:53:57;;;;;;;;;;;;;;;19.97;100.00;100214.16;6514532;22;19903;-83
2022/08/15 03:56:30;;;;;;;;;;;;;;;19.88;100.00;100212.75;6542517;22;20001;-84
2022/08/15 03:59:01;;;;;;;;;;;;;;;19.92;100.00;100222.94;6542229;22;19908;-84
2022/08/15 04:01:33;;;;;;;;;;;;;;;19.94;100.00;100211.91;6542335;22;19911;-84
2022/08/15 04:04:05;;;;;;;;;;;;;;;19.91;100.00;100215.84;6543505;22;19950;-84
2022/08/15 04:06:40;;;;;;;;;;;;;;;19.90;100.00;100222.34;6542090;22;20314;-84
2022/08/15 04:09:11;;;;;;;;;;;;;;;19.91;100.00;100202.31;6542615;22;19918;-83
2022/08/15 04:11:42;;;;;;;;;;;;;;;19.88;100.00;100210.91;6543035;22;20326;-83
2022/08/15 04:14:13;;;;;;;;;;;;;;;19.84;100.00;100215.06;6542962;22;19957;-83
2022/08/15 04:16:45;;;;;;;;;;;;;;;19.83;100.00;100203.44;6543170;22;19907;-83
2022/08/15 04:19:16;;;;;;;;;;;;;;;19.83;100.00;100214.25;6515275;22;20356;-83
2022/08/15 04:21:48;;;;;;;;;;;;;;;19.80;100.00;100214.69;6542806;22;19926;-83
2022/08/15 04:24:21;;;;;;;;;;;;;;;19.80;100.00;100217.38;6542691;22;19949;-83
2022/08/15 04:26:53;;;;;;;;;;;;;;;19.82;100.00;100222.59;6515629;22;20307;-83
2022/08/15 04:29:24;;;;;;;;;;;;;;;19.83;100.00;100216.97;6515997;22;19903;-83
2022/08/15 04:31:56;;;;;;;;;;;;;;;19.83;100.00;100221.56;6543156;22;20206;-83
2022/08/15 04:34:29;;;;;;;;;;;;;;;19.83;100.00;100225.06;6541854;22;19946;-83
2022/08/15 04:37:00;;;;;;;;;;;;;;;19.83;100.00;100227.78;6543081;22;19903;-83
2022/08/15 04:39:31;;;;;;;;;;;;;;;19.85;100.00;100224.03;6542581;22;19950;-83
2022/08/15 04:42:02;;;;;;;;;;;;;;;19.81;100.00;100227.19;6515884;22;20002;-83
2022/08/15 04:44:39;;;;;;;;;;;;;;;19.81;100.00;100216.34;6542263;22;19916;-83
2022/08/15 04:47:11;;;;;;;;;;;;;;;19.83;100.00;100232.38;6542289;22;19910;-83
2022/08/15 04:49:42;;;;;;;;;;;;;;;19.83;100.00;100225.06;6543024;22;20002;-83
2022/08/15 04:52:16;;;;;;;;;;;;;;;19.87;100.00;100224.66;6542959;22;19907;-83
2022/08/15 04:54:47;;;;;;;;;;;;;;;19.90;100.00;100224.19;6515531;22;19904;-83
2022/08/15 04:57:18;;;;;;;;;;;;;;;19.92;100.00;100232.94;6541933;22;20233;-83
2022/08/15 04:59:50;;;;;;;;;;;;;;;19.95;100.00;100230.63;6542572;22;19910;-83
2022/08/15 05:02:23;;;;;;;;;;;;;;;19.99;100.00;100229.13;6542365;22;19931;-83
2022/08/15 05:04:55;;;;;;;;;;;;;;;20.02;100.00;100228.69;6542638;22;19907;-82
2022/08/15 05:07:27;;;;;;;;;;;;;;;20.08;100.00;100239.69;6542691;22;19914;-83
2022/08/15 05:09:58;;;;;;;;;;;;;;;20.15;100.00;100235.06;6542005;22;19903;-83
2022/08/15 05:12:30;;;;;;;;;;;;;;;20.20;100.00;100233.34;6542523;22;19915;-83
2022/08/15 05:15:03;;;;;;;;;;;;;;;20.22;100.00;100225.00;6542810;22;19957;-83
2022/08/15 05:17:34;;;;;;;;;;;;;;;20.25;100.00;100227.28;6541804;22;19911;-83
2022/08/15 05:20:06;;;;;;;;;;;;;;;20.29;100.00;100250.13;6542994;22;19907;-83
2022/08/15 05:22:50;;;;;;;;;;;;;;;20.35;100.00;100240.28;6515297;22;19904;-84
2022/08/15 05:25:22;;;;;;;;;;;;;;;20.39;100.00;100246.94;6542394;22;19904;-83
2022/08/15 05:27:53;;;;;;;;;;;;;;;20.43;100.00;100250.84;6543001;22;19915;-83
2022/08/15 05:30:24;;;;;;;;;;;;;;;20.47;100.00;100256.66;6542530;22;19907;-83
2022/08/15 05:33:05;;;;;;;;;;;;;;;20.48;100.00;100261.03;6542441;22;19969;-83
2022/08/15 05:35:41;;;;;;;;;;;;;;;20.49;100.00;100258.09;6542247;22;19965;-83
2022/08/15 05:38:17;;;;;;;;;;;;;;;20.50;100.00;100257.03;6542017;22;20314;-84
2022/08/15 05:41:01;;;;;;;;;;;;;;;20.51;100.00;100263.28;6542204;22;19978;-83
2022/08/15 05:43:58;;;;;;;;;;;;;;;20.50;100.00;100261.66;6542186;22;19957;-84
2022/08/15 05:46:42;;;;;;;;;;;;;;;20.48;100.00;100263.75;6542307;22;19946;-84
2022/08/15 05:49:23;;;;;;;;;;;;;;;20.49;100.00;100263.50;6515271;22;19943;-84
2022/08/15 05:52:10;;;;;;;;;;;;;;;20.51;100.00;100260.56;6542873;22;19973;-84
2022/08/15 05:54:47;;;;;;;;;;;;;;;20.54;100.00;100266.38;6542333;22;19957;-84
2022/08/15 05:57:30;;;;;;;;;;;;;;;20.56;100.00;100267.00;6541628;22;19915;-83
2022/08/15 06:00:05;;;;;;;;;;;;;;;20.61;100.00;100271.75;6542078;22;19904;-84
2022/08/15 06:02:42;;;;;;;;;;;;;;;20.66;100.00;100268.41;6542640;22;19910;-83
2022/08/15 06:05:18;;;;;;;;;;;;;;;20.71;100.00;100266.69;6541649;22;19970;-83
2022/08/15 06:07:50;;;;;;;;;;;;;;;20.80;100.00;100261.78;6515315;22;19907;-84
2022/08/15 06:10:25;;;;;;;;;;;;;;;20.86;100.00;100266.34;6541740;22;19907;-84
2022/08/15 06:13:02;;;;;;;;;;;;;;;20.93;100.00;100277.94;6542063;22;20218;-84
2022/08/15 06:15:36;;;;;;;;;;;;;;;21.04;100.00;100280.97;6514822;22;19907;-84
2022/08/15 06:18:09;;;;;;;;;;;;;;;21.18;100.00;100276.19;6541794;22;20310;-84
2022/08/15 06:20:47;;;;;;;;;;;;;;;21.27;100.00;100274.84;6542130;22;19907;-84
2022/08/15 06:23:18;;;;;;;;;;;;;;;21.46;100.00;100281.94;6541431;22;19903;-84
2022/08/15 06:25:55;;;;;;;;;;;;;;;21.59;100.00;100282.84;6541901;22;19910;-84
2022/08/15 06:28:44;;;;;;;;;;;;;;;21.72;100.00;100282.63;6542020;22;19907;-84
2022/08/15 06:31:25;;;;;;;;;;;;;;;21.81;100.00;100278.56;6542687;22;19903;-84
2022/08/15 06:33:59;;;;;;;;;;;;;;;21.86;100.00;100283.28;6542269;22;19903;-84
2022/08/15 06:36:35;;;;;;;;;;;;;;;21.93;100.00;100284.00;6542581;22;19908;-84
2022/08/15 06:39:12;;;;;;;;;;;;;;;21.94;100.00;100282.97;6542808;22;19912;-84
2022/08/15 06:42:04;;;;;;;;;;;;;;;21.99;100.00;100271.41;6515885;22;19907;-84
2022/08/15 06:44:36;;;;;;;;;;;;;;;22.08;100.00;100281.69;6541653;22;19911;-84
2022/08/15 06:47:08;;;;;;;;;;;;;;;22.18;100.00;100274.91;6543677;22;20001;-84
2022/08/15 06:49:42;;;;;;;;;;;;;;;22.02;100.00;100271.78;6516069;22;19907;-84
2022/08/15 06:52:16;;;;;;;;;;;;;;;22.05;100.00;100284.06;6542233;22;19907;-85
2022/08/15 06:54:47;;;;;;;;;;;;;;;22.10;100.00;100286.91;6515981;22;19954;-84
2022/08/15 06:57:22;;;;;;;;;;;;;;;22.21;100.00;100288.00;6541770;22;19907;-84
2022/08/15 07:00:01;;;;;;;;;;;;;;;22.40;100.00;100288.75;6542271;22;19919;-84
2022/08/15 07:02:50;;;;;;;;;;;;;;;22.45;100.00;100292.44;6542456;22;19962;-84
2022/08/15 07:05:22;;;;;;;;;;;;;;;22.64;100.00;100293.16;6515673;22;19909;-84
2022/08/15 07:08:08;;;;;;;;;;;;;;;22.93;100.00;100278.84;6542518;22;20342;-84
2022/08/15 07:10:43;;;;;;;;;;;;;;;23.23;100.00;100273.28;6543210;22;19903;-84
2022/08/15 07:13:18;;;;;;;;;;;;;;;23.87;100.00;100275.09;6542889;22;19916;-84
2022/08/15 07:15:49;;;;;;;;;;;;;;;24.39;100.00;100274.91;6542903;22;20345;-84
2022/08/15 07:18:24;;;;;;;;;;;;;;;24.53;100.00;100272.69;6542232;22;19930;-84
2022/08/15 07:21:02;;;;;;;;;;;;;;;24.73;100.00;100264.00;6543789;22;20227;-84
2022/08/15 07:23:35;;;;;;;;;;;;;;;24.84;100.00;100273.16;6544282;22;19919;-84
2022/08/15 07:26:08;;;;;;;;;;;;;;;24.69;100.00;100279.22;6544986;22;19927;-84
2022/08/15 07:28:41;;;;;;;;;;;;;;;24.50;100.00;100271.25;6544766;22;19922;-84
2022/08/15 07:31:17;;;;;;;;;;;;;;;24.58;100.00;100272.78;6518244;22;19907;-84
2022/08/15 07:33:50;;;;;;;;;;;;;;;24.75;100.00;100269.22;6543895;22;20412;-83
2022/08/15 07:36:23;;;;;;;;;;;;;;;24.87;100.00;100265.28;6517316;22;19910;-82
2022/08/15 07:38:55;;;;;;;;;;;;;;;25.02;100.00;100264.69;6544150;22;19907;-82
2022/08/15 07:41:30;;;;;;;;;;;;;;;24.79;100.00;100275.81;6545107;22;19907;-82
2022/08/15 07:44:19;;;;;;;;;;;;;;;24.75;100.00;100272.75;6517166;22;19960;-82
2022/08/15 07:46:55;;;;;;;;;;;;;;;24.93;100.00;100274.41;6544135;22;20006;-82
2022/08/15 07:49:30;;;;;;;;;;;;;;;24.88;100.00;100271.59;6543517;22;19910;-82
2022/08/15 07:52:17;;;;;;;;;;;;;;;25.15;100.00;100281.75;6543620;22;19947;-82
2022/08/15 07:54:51;;;;;;;;;;;;;;;25.46;100.00;100278.38;6543091;22;19914;-82
2022/08/15 07:57:34;;;;;;;;;;;;;;;25.41;100.00;100283.75;6516878;22;19907;-82
2022/08/15 08:00:14;;;;;;;;;;;;;;;25.42;100.00;100277.22;6516475;22;19908;-82
2022/08/15 08:02:51;;;;;;;;;;;;;;;25.39;100.00;100283.19;6543652;22;19909;-83
2022/08/15 08:05:25;;;;;;;;;;;;;;;25.32;100.00;100289.94;6542841;22;20390;-82
2022/08/15 08:08:00;;;;;;;;;;;;;;;25.44;100.00;100293.38;6543329;22;19907;-82
2022/08/15 08:10:32;;;;;;;;;;;;;;;25.48;100.00;100287.13;6542311;22;19911;-82
2022/08/15 08:13:10;;;;;;;;;;;;;;;25.59;100.00;100295.44;6543809;22;20311;-83
2022/08/15 08:15:48;;;;;;;;;;;;;;;25.76;100.00;100287.97;6516550;22;19930;-83
2022/08/15 08:18:35;;;;;;;;;;;;;;;25.99;100.00;100292.34;6542877;22;20349;-83
2022/08/15 08:21:11;;;;;;;;;;;;;;;26.01;100.00;100292.09;6543659;22;20237;-83
2022/08/15 08:23:47;;;;;;;;;;;;;;;25.99;100.00;100296.97;6543382;22;20322;-83
2022/08/15 08:26:21;;;;;;;;;;;;;;;26.03;100.00;100298.09;6543489;22;19914;-83
2022/08/15 08:29:11;;;;;;;;;;;;;;;26.08;100.00;100300.06;6542747;22;19912;-83
2022/08/15 08:31:45;;;;;;;;;;;;;;;25.99;100.00;100302.44;6543035;22;19962;-83
2022/08/15 08:34:24;;;;;;;;;;;;;;;25.61;100.00;100296.84;6543405;22;19907;-83
2022/08/15 08:37:04;;;;;;;;;;;;;;;25.25;100.00;100301.84;6543837;22;19903;-83
2022/08/15 08:39:44;;;;;;;;;;;;;;;25.32;100.00;100298.94;6543874;22;19977;-83
2022/08/15 08:42:32;;;;;;;;;;;;;;;24.87;100.00;100300.75;6543287;22;19979;-82
2022/08/15 08:45:11;;;;;;;;;;;;;;;24.72;100.00;100300.53;6542798;22;19919;-82
2022/08/15 08:47:45;;;;;;;;;;;;;;;24.47;100.00;100298.19;6543281;22;19907;-82
2022/08/15 08:50:21;;;;;;;;;;;;;;;24.37;100.00;100293.41;6542922;22;20353;-82
2022/08/15 08:53:11;;;;;;;;;;;;;;;24.18;100.00;100303.72;6516167;22;20013;-82
2022/08/15 08:55:49;;;;;;;;;;;;;;;24.02;100.00;100301.78;6516461;22;19904;-82
2022/08/15 08:58:36;;;;;;;;;;;;;;;24.07;100.00;100299.16;6516258;22;20391;-82
2022/08/15 09:01:10;;;;;;;;;;;;;;;23.93;100.00;100309.50;6516733;22;19914;-82
2022/08/15 09:03:46;;;;;;;;;;;;;;;23.80;100.00;100310.63;6543383;22;19911;-82
2022/08/15 09:06:22;;;;;;;;;;;;;;;23.89;100.00;100300.19;6516005;22;19904;-82
2022/08/15 09:09:15;;;;;;;;;;;;;;;23.84;100.00;100314.53;6516142;22;19911;-82
2022/08/15 09:11:49;;;;;;;;;;;;;;;23.87;100.00;100318.66;6543686;22;19907;-84
2022/08/15 09:14:30;;;;;;;;;;;;;;;23.86;100.00;100322.44;6517265;22;19907;-82
2022/08/15 09:17:04;;;;;;;;;;;;;;;23.95;100.00;100329.19;6543372;22;19903;-82
2022/08/15 09:19:50;;;;;;;;;;;;;;;24.10;100.00;100321.28;6516422;22;20058;-82
2022/08/15 09:22:22;;;;;;;;;;;;;;;24.20;100.00;100334.25;6543797;22;20310;-82
2022/08/15 09:24:54;;;;;;;;;;;;;;;24.46;100.00;100318.38;6543371;22;19931;-83
2022/08/15 09:27:32;;;;;;;;;;;;;;;24.72;100.00;100323.19;6543253;22;19914;-83
2022/08/15 09:30:05;;;;;;;;;;;;;;;24.99;100.00;100318.94;6542666;22;20329;-83
2022/08/15 09:32:55;;;;;;;;;;;;;;;25.04;100.00;100319.81;6543427;22;19907;-83
2022/08/15 09:35:36;;;;;;;;;;;;;;;24.73;100.00;100326.72;6515770;22;19903;-83
2022/08/15 09:38:10;;;;;;;;;;;;;;;24.80;100.00;100329.28;6542547;22;20326;-82
2022/08/15 09:40:48;;;;;;;;;;;;;;;25.12;100.00;100317.72;6543476;22;20763;-83
2022/08/15 09:43:37;;;;;;;;;;;;;;;25.45;100.00;100328.56;6541924;22;19907;-83
2022/08/15 09:46:27;;;;;;;;;;;;;;;25.64;100.00;100326.34;6542670;22;19912;-82
2022/08/15 09:49:09;;;;;;;;;;;;;;;26.15;100.00;100319.81;6516005;22;19907;-82
2022/08/15 09:51:59;;;;;;;;;;;;;;;26.47;100.00;100322.53;6515749;22;19903;-82
2022/08/15 09:54:33;;;;;;;;;;;;;;;26.41;100.00;100323.59;6516108;22;19969;-83
2022/08/15 09:57:21;;;;;;;;;;;;;;;26.13;100.00;100328.28;6516560;22;20318;-83
2022/08/15 09:59:57;;;;;;;;;;;;;;;26.24;100.00;100329.19;6516081;22;19907;-83
2022/08/15 10:02:32;;;;;;;;;;;;;;;26.20;100.00;100326.16;6542603;22;20721;-83
2022/08/15 10:05:07;;;;;;;;;;;;;;;26.04;100.00;100330.66;6515710;22;20677;-83
2022/08/15 10:07:42;;;;;;;;;;;;;;;26.18;100.00;100327.50;6516290;22;20560;-83
2022/08/15 10:10:13;;;;;;;;;;;;;;;26.34;100.00;100334.75;6515623;22;19946;-83
2022/08/15 10:13:03;;;;;;;;;;;;;;;26.52;100.00;100324.50;6542932;22;19904;-82
2022/08/15 10:15:41;;;;;;;;;;;;;;;27.10;100.00;100311.78;6543240;22;20215;-83
2022/08/15 10:18:21;;;;;;;;;;;;;;;27.31;100.00;100323.72;6542462;22;19978;-82
2022/08/15 10:20:52;;;;;;;;;;;;;;;27.39;100.00;100327.03;6516088;22;19957;-82
2022/08/15 10:23:30;;;;;;;;;;;;;;;27.12;100.00;100322.47;6515665;22;20342;-83
2022/08/15 10:26:19;;;;;;;;;;;;;;;26.97;100.00;100320.50;6541119;22;19966;-83
2022/08/15 10:29:02;;;;;;;;;;;;;;;26.67;100.00;100327.41;6543387;22;19904;-83
2022/08/15 10:31:57;;;;;;;;;;;;;;;26.46;100.00;100322.84;6516235;22;19907;-82
2022/08/15 10:34:37;;;;;;;;;;;;;;;26.39;100.00;100323.03;6492235;22;21000;-83
2022/08/15 10:37:15;;;;;;;;;;;;;;;26.53;100.00;100331.63;6542055;22;19907;-83
2022/08/15 10:40:02;;;;;;;;;;;;;;;26.59;100.00;100322.38;6515986;22;19908;-83
2022/08/15 10:42:42;;;;;;;;;;;;;;;26.38;100.00;100335.06;6515840;22;19903;-83
2022/08/15 10:45:13;;;;;;;;;;;;;;;26.35;100.00;100327.38;6515649;22;19919;-83
2022/08/15 10:48:03;;;;;;;;;;;;;;;26.45;100.00;100334.84;6543416;22;19915;-83
2022/08/15 10:50:42;;;;;;;;;;;;;;;26.36;100.00;100335.31;6515975;22;19915;-83
2022/08/15 10:53:22;;;;;;;;;;;;;;;26.10;100.00;100330.69;6516257;22;20314;-83
2022/08/15 10:56:05;;;;;;;;;;;;;;;25.79;100.00;100339.38;6542833;22;19908;-83
2022/08/15 10:58:36;;;;;;;;;;;;;;;25.35;100.00;100341.25;6542924;22;20014;-83
2022/08/15 11:01:26;;;;;;;;;;;;;;;25.17;100.00;100339.63;6516058;22;19931;-83
2022/08/15 11:04:05;;;;;;;;;;;;;;;25.09;100.00;100340.91;6542905;22;19911;-83
2022/08/15 11:06:48;;;;;;;;;;;;;;;25.06;100.00;100335.94;6515576;22;19934;-83
2022/08/15 11:09:20;;;;;;;;;;;;;;;25.09;100.00;100336.25;6542871;22;20324;-83
2022/08/15 11:11:54;;;;;;;;;;;;;;;24.94;100.00;100335.22;6516257;22;19947;-83
2022/08/15 11:14:37;;;;;;;;;;;;;;;25.17;100.00;100340.44;6543461;22;19907;-83
2022/08/15 11:17:14;;;;;;;;;;;;;;;25.37;100.00;100333.66;6516024;22;19954;-83
2022/08/15 11:19:49;;;;;;;;;;;;;;;25.37;100.00;100334.50;6543148;22;19912;-83
2022/08/15 11:22:37;;;;;;;;;;;;;;;25.48;100.00;100341.72;6515837;22;20235;-83
2022/08/15 11:25:13;;;;;;;;;;;;;;;25.50;100.00;100337.91;6542278;22;19907;-82
2022/08/15 11:27:56;;;;;;;;;;;;;;;25.33;100.00;100330.59;6543450;22;20207;-83
2022/08/15 11:30:29;;;;;;;;;;;;;;;25.35;100.00;100336.66;6542516;22;19904;-83
2022/08/15 11:33:19;;;;;;;;;;;;;;;25.51;100.00;100339.56;6543642;22;19903;-83
2022/08/15 11:36:02;;;;;;;;;;;;;;;25.65;100.00;100333.47;6542877;22;20079;-83
2022/08/15 11:38:35;;;;;;;;;;;;;;;25.93;100.00;100337.06;6541374;22;20318;-83
2022/08/15 11:41:07;;;;;;;;;;;;;;;26.12;100.00;100331.25;6515753;22;19903;-83
2022/08/15 11:43:40;;;;;;;;;;;;;;;26.45;100.00;100335.66;6515265;22;19912;-83
2022/08/15 11:46:11;;;;;;;;;;;;;;;26.77;100.00;100340.31;6515171;22;19918;-83
2022/08/15 11:48:46;;;;;;;;;;;;;;;26.66;100.00;100347.63;6515738;22;19915;-83
2022/08/15 11:51:23;;;;;;;;;;;;;;;26.79;100.00;100347.19;6515390;22;19914;-83
2022/08/15 11:54:06;;;;;;;;;;;;;;;27.04;100.00;100342.97;6542364;22;19965;-83
2022/08/15 11:56:44;;;;;;;;;;;;;;;27.46;100.00;100338.56;6514915;22;20298;-83
2022/08/15 11:59:21;;;;;;;;;;;;;;;27.87;100.00;100339.50;6514854;22;19994;-83
2022/08/15 12:02:01;;;;;;;;;;;;;;;27.93;100.00;100340.41;6542413;22;19903;-83
2022/08/15 12:04:33;;;;;;;;;;;;;;;27.62;100.00;100340.28;6541984;22;19910;-83
2022/08/15 12:07:07;;;;;;;;;;;;;;;27.83;100.00;100340.34;6543865;22;19930;-83
2022/08/15 12:09:39;;;;;;;;;;;;;;;28.01;100.00;100347.25;6542686;22;19907;-83
2022/08/15 12:12:29;;;;;;;;;;;;;;;27.62;100.00;100340.28;6543722;22;20207;-83
2022/08/15 12:15:09;;;;;;;;;;;;;;;27.17;100.00;100349.88;6545698;22;20041;-83
2022/08/15 12:17:51;;;;;;;;;;;;;;;26.82;100.00;100353.22;6546394;22;19954;-83
2022/08/15 12:20:41;;;;;;;;;;;;;;;26.61;100.00;100358.47;6543024;22;19911;-83
2022/08/15 12:23:21;;;;;;;;;;;;;;;26.52;100.00;100354.59;6543421;22;19904;-83
2022/08/15 12:25:53;;;;;;;;;;;;;;;26.57;100.00;100352.72;6543317;22;19998;-83
2022/08/15 12:28:26;;;;;;;;;;;;;;;26.54;100.00;100356.00;6543424;22;19903;-83
2022/08/15 12:30:59;;;;;;;;;;;;;;;26.34;100.00;100361.28;6544565;22;20245;-83
2022/08/15 12:33:31;;;;;;;;;;;;;;;26.26;100.00;100354.34;6516451;22;20333;-83
2022/08/15 12:36:02;;;;;;;;;;;;;;;26.42;100.00;100353.41;6543502;22;19914;-83
2022/08/15 12:38:35;;;;;;;;;;;;;;;26.41;100.00;100359.16;6543992;22;19907;-83
2022/08/15 12:41:07;;;;;;;;;;;;;;;26.51;100.00;100355.69;6545234;22;19903;-83
2022/08/15 12:43:39;;;;;;;;;;;;;;;26.59;100.00;100360.66;6548994;22;19914;-83
2022/08/15 12:46:10;;;;;;;;;;;;;;;26.65;100.00;100356.94;6550123;22;19911;-83
2022/08/15 12:48:43;;;;;;;;;;;;;;;26.75;100.00;100354.28;6521388;22;19903;-83
2022/08/15 12:51:15;;;;;;;;;;;;;;;26.89;100.00;100360.09;6516857;22;19990;-83
2022/08/15 12:53:46;;;;;;;;;;;;;;;27.15;100.00;100361.09;6547557;22;20245;-82
2022/08/15 12:56:19;;;;;;;;;;;;;;;27.29;100.00;100352.44;6548462;22;19913;-83
2022/08/15 12:58:51;;;;;;;;;;;;;;;27.44;100.00;100362.66;6543579;22;19908;-83
2022/08/15 13:01:22;;;;;;;;;;;;;;;27.56;100.00;100355.06;6543705;22;20366;-84
2022/08/15 13:03:53;;;;;;;;;;;;;;;27.47;100.00;100359.38;6543872;22;19950;-83
2022/08/15 13:06:28;;;;;;;;;;;;;;;27.66;100.00;100346.03;6516436;22;19987;-83
2022/08/15 13:08:59;;;;;;;;;;;;;;;27.64;100.00;100343.56;6516343;22;19914;-83
2022/08/15 13:11:31;;;;;;;;;;;;;;;27.55;100.00;100353.41;6516493;22;19904;-83